sensor_id;sensor_type;location;lat;lon;timestamp;P1;durP1;ratioP1;P2;durP2;ratioP2
47860;SDS011;33620;52.340;5.984;2023-11-21T00:01:44;58.72;;;26.15;;
47860;SDS011;33620;52.340;5.984;2023-11-21T00:04:09;57.33;;;25.42;;
47860;SDS011;33620;52.340;5.984;2023-11-21T00:06:35;50.65;;;25.23;;
47860;SDS011;33620;52.340;5.984;2023-11-21T00:09:00;51.55;;;24.08;;
47860;SDS011;33620;52.340;5.984;2023-11-21T00:11:25;49.80;;;23.98;;
47860;SDS011;33620;52.340;5.984;2023-11-21T00:13:51;51.90;;;23.42;;
47860;SDS011;33620;52.340;5.984;2023-11-21T00:16:16;48.53;;;23.60;;
47860;SDS011;33620;52.340;5.984;2023-11-21T00:18:42;45.10;;;20.90;;
47860;SDS011;33620;52.340;5.984;2023-11-21T00:21:07;43.08;;;22.05;;
47860;SDS011;33620;52.340;5.984;2023-11-21T00:23:33;41.25;;;20.65;;
47860;SDS011;33620;52.340;5.984;2023-11-21T00:25:59;39.90;;;20.17;;
47860;SDS011;33620;52.340;5.984;2023-11-21T00:28:24;39.05;;;19.58;;
47860;SDS011;33620;52.340;5.984;2023-11-21T00:30:50;43.05;;;19.40;;
47860;SDS011;33620;52.340;5.984;2023-11-21T00:33:16;38.55;;;19.67;;
47860;SDS011;33620;52.340;5.984;2023-11-21T00:35:41;42.35;;;20.23;;
47860;SDS011;33620;52.340;5.984;2023-11-21T00:38:06;39.63;;;18.60;;
47860;SDS011;33620;52.340;5.984;2023-11-21T00:40:33;37.75;;;18.35;;
47860;SDS011;33620;52.340;5.984;2023-11-21T00:42:58;40.25;;;19.42;;
47860;SDS011;33620;52.340;5.984;2023-11-21T00:45:24;39.95;;;19.05;;
47860;SDS011;33620;52.340;5.984;2023-11-21T00:47:49;41.70;;;19.40;;
47860;SDS011;33620;52.340;5.984;2023-11-21T00:50:15;39.50;;;19.02;;
47860;SDS011;33620;52.340;5.984;2023-11-21T00:52:40;42.33;;;18.77;;
47860;SDS011;33620;52.340;5.984;2023-11-21T00:55:06;36.67;;;18.42;;
47860;SDS011;33620;52.340;5.984;2023-11-21T00:57:32;39.00;;;17.48;;
47860;SDS011;33620;52.340;5.984;2023-11-21T00:59:58;36.33;;;17.92;;
47860;SDS011;33620;52.340;5.984;2023-11-21T01:02:23;33.42;;;16.80;;
47860;SDS011;33620;52.340;5.984;2023-11-21T01:04:50;39.88;;;17.88;;
47860;SDS011;33620;52.340;5.984;2023-11-21T01:07:15;37.75;;;17.38;;
47860;SDS011;33620;52.340;5.984;2023-11-21T01:09:40;35.83;;;17.23;;
47860;SDS011;33620;52.340;5.984;2023-11-21T01:12:06;39.47;;;17.83;;
47860;SDS011;33620;52.340;5.984;2023-11-21T01:14:31;39.47;;;18.20;;
47860;SDS011;33620;52.340;5.984;2023-11-21T01:16:57;42.10;;;20.33;;
47860;SDS011;33620;52.340;5.984;2023-11-21T01:19:22;41.65;;;19.58;;
47860;SDS011;33620;52.340;5.984;2023-11-21T01:21:47;40.17;;;19.13;;
47860;SDS011;33620;52.340;5.984;2023-11-21T01:24:13;39.03;;;19.42;;
47860;SDS011;33620;52.340;5.984;2023-11-21T01:26:38;40.63;;;19.35;;
47860;SDS011;33620;52.340;5.984;2023-11-21T01:29:04;48.35;;;21.63;;
47860;SDS011;33620;52.340;5.984;2023-11-21T01:31:29;45.22;;;19.98;;
47860;SDS011;33620;52.340;5.984;2023-11-21T01:33:55;51.50;;;20.20;;
47860;SDS011;33620;52.340;5.984;2023-11-21T01:36:21;43.55;;;20.67;;
47860;SDS011;33620;52.340;5.984;2023-11-21T01:38:46;48.25;;;20.92;;
47860;SDS011;33620;52.340;5.984;2023-11-21T01:41:14;48.88;;;21.05;;
47860;SDS011;33620;52.340;5.984;2023-11-21T01:43:41;44.67;;;20.35;;
47860;SDS011;33620;52.340;5.984;2023-11-21T01:46:06;50.15;;;22.70;;
47860;SDS011;33620;52.340;5.984;2023-11-21T01:48:33;52.28;;;23.63;;
47860;SDS011;33620;52.340;5.984;2023-11-21T01:50:59;53.15;;;22.17;;
47860;SDS011;33620;52.340;5.984;2023-11-21T01:53:25;48.70;;;21.50;;
47860;SDS011;33620;52.340;5.984;2023-11-21T01:55:51;41.13;;;19.60;;
47860;SDS011;33620;52.340;5.984;2023-11-21T01:58:16;38.97;;;19.27;;
47860;SDS011;33620;52.340;5.984;2023-11-21T02:00:42;39.47;;;18.92;;
47860;SDS011;33620;52.340;5.984;2023-11-21T02:03:08;39.88;;;20.33;;
47860;SDS011;33620;52.340;5.984;2023-11-21T02:05:35;40.50;;;19.38;;
47860;SDS011;33620;52.340;5.984;2023-11-21T02:08:01;43.28;;;19.50;;
47860;SDS011;33620;52.340;5.984;2023-11-21T02:10:27;44.90;;;21.08;;
47860;SDS011;33620;52.340;5.984;2023-11-21T02:12:54;44.38;;;20.95;;
47860;SDS011;33620;52.340;5.984;2023-11-21T02:15:21;43.70;;;21.98;;
47860;SDS011;33620;52.340;5.984;2023-11-21T02:17:48;50.78;;;22.65;;
47860;SDS011;33620;52.340;5.984;2023-11-21T02:20:16;47.38;;;21.40;;
47860;SDS011;33620;52.340;5.984;2023-11-21T02:22:52;53.42;;;22.52;;
47860;SDS011;33620;52.340;5.984;2023-11-21T02:25:28;52.20;;;21.50;;
47860;SDS011;33620;52.340;5.984;2023-11-21T02:27:55;55.33;;;22.13;;
47860;SDS011;33620;52.340;5.984;2023-11-21T02:30:30;47.42;;;20.85;;
47860;SDS011;33620;52.340;5.984;2023-11-21T02:32:58;53.70;;;21.98;;
47860;SDS011;33620;52.340;5.984;2023-11-21T02:35:24;48.22;;;21.60;;
47860;SDS011;33620;52.340;5.984;2023-11-21T02:37:51;45.40;;;20.05;;
47860;SDS011;33620;52.340;5.984;2023-11-21T02:40:17;46.95;;;21.48;;
47860;SDS011;33620;52.340;5.984;2023-11-21T02:42:45;52.10;;;21.77;;
47860;SDS011;33620;52.340;5.984;2023-11-21T02:45:12;49.78;;;21.65;;
47860;SDS011;33620;52.340;5.984;2023-11-21T02:47:41;50.72;;;21.30;;
47860;SDS011;33620;52.340;5.984;2023-11-21T02:50:07;53.88;;;22.33;;
47860;SDS011;33620;52.340;5.984;2023-11-21T02:52:33;51.92;;;22.95;;
47860;SDS011;33620;52.340;5.984;2023-11-21T02:55:00;56.13;;;22.13;;
47860;SDS011;33620;52.340;5.984;2023-11-21T02:57:26;54.88;;;22.88;;
47860;SDS011;33620;52.340;5.984;2023-11-21T02:59:51;50.63;;;21.95;;
47860;SDS011;33620;52.340;5.984;2023-11-21T03:02:17;47.40;;;20.75;;
47860;SDS011;33620;52.340;5.984;2023-11-21T03:04:42;48.70;;;21.08;;
47860;SDS011;33620;52.340;5.984;2023-11-21T03:07:08;41.05;;;19.17;;
47860;SDS011;33620;52.340;5.984;2023-11-21T03:09:34;45.78;;;21.15;;
47860;SDS011;33620;52.340;5.984;2023-11-21T03:12:00;48.72;;;20.45;;
47860;SDS011;33620;52.340;5.984;2023-11-21T03:14:25;50.42;;;20.50;;
47860;SDS011;33620;52.340;5.984;2023-11-21T03:16:51;54.30;;;20.90;;
47860;SDS011;33620;52.340;5.984;2023-11-21T03:19:16;49.97;;;20.00;;
47860;SDS011;33620;52.340;5.984;2023-11-21T03:21:42;43.42;;;18.70;;
47860;SDS011;33620;52.340;5.984;2023-11-21T03:24:07;56.10;;;20.80;;
47860;SDS011;33620;52.340;5.984;2023-11-21T03:26:33;48.13;;;20.20;;
47860;SDS011;33620;52.340;5.984;2023-11-21T03:28:58;48.50;;;20.02;;
47860;SDS011;33620;52.340;5.984;2023-11-21T03:31:23;48.15;;;19.92;;
47860;SDS011;33620;52.340;5.984;2023-11-21T03:33:49;47.97;;;19.23;;
47860;SDS011;33620;52.340;5.984;2023-11-21T03:36:14;42.70;;;18.50;;
47860;SDS011;33620;52.340;5.984;2023-11-21T03:38:40;45.20;;;18.67;;
47860;SDS011;33620;52.340;5.984;2023-11-21T03:41:06;40.53;;;17.92;;
47860;SDS011;33620;52.340;5.984;2023-11-21T03:43:32;45.63;;;18.63;;
47860;SDS011;33620;52.340;5.984;2023-11-21T03:45:58;43.78;;;17.92;;
47860;SDS011;33620;52.340;5.984;2023-11-21T03:48:23;38.55;;;18.38;;
47860;SDS011;33620;52.340;5.984;2023-11-21T03:50:48;40.40;;;17.08;;
47860;SDS011;33620;52.340;5.984;2023-11-21T03:53:14;43.08;;;17.95;;
47860;SDS011;33620;52.340;5.984;2023-11-21T03:55:39;46.28;;;18.23;;
47860;SDS011;33620;52.340;5.984;2023-11-21T03:58:04;52.85;;;18.10;;
47860;SDS011;33620;52.340;5.984;2023-11-21T04:00:30;49.38;;;17.63;;
47860;SDS011;33620;52.340;5.984;2023-11-21T04:02:55;46.08;;;17.95;;
47860;SDS011;33620;52.340;5.984;2023-11-21T04:05:21;45.22;;;19.20;;
47860;SDS011;33620;52.340;5.984;2023-11-21T04:07:49;43.30;;;17.17;;
47860;SDS011;33620;52.340;5.984;2023-11-21T04:10:18;43.65;;;18.63;;
47860;SDS011;33620;52.340;5.984;2023-11-21T04:12:44;45.28;;;18.85;;
47860;SDS011;33620;52.340;5.984;2023-11-21T04:15:10;38.08;;;17.15;;
47860;SDS011;33620;52.340;5.984;2023-11-21T04:17:36;47.08;;;19.20;;
47860;SDS011;33620;52.340;5.984;2023-11-21T04:20:02;42.63;;;17.90;;
47860;SDS011;33620;52.340;5.984;2023-11-21T04:22:33;40.53;;;16.58;;
47860;SDS011;33620;52.340;5.984;2023-11-21T04:24:58;37.03;;;15.02;;
47860;SDS011;33620;52.340;5.984;2023-11-21T04:27:23;34.25;;;15.27;;
47860;SDS011;33620;52.340;5.984;2023-11-21T04:29:49;35.03;;;15.55;;
47860;SDS011;33620;52.340;5.984;2023-11-21T04:32:14;44.15;;;17.48;;
47860;SDS011;33620;52.340;5.984;2023-11-21T04:34:39;41.42;;;17.13;;
47860;SDS011;33620;52.340;5.984;2023-11-21T04:37:05;40.05;;;17.45;;
47860;SDS011;33620;52.340;5.984;2023-11-21T04:39:31;44.15;;;18.90;;
47860;SDS011;33620;52.340;5.984;2023-11-21T04:41:56;44.13;;;18.67;;
47860;SDS011;33620;52.340;5.984;2023-11-21T04:44:22;47.85;;;19.38;;
47860;SDS011;33620;52.340;5.984;2023-11-21T04:46:47;50.55;;;19.27;;
47860;SDS011;33620;52.340;5.984;2023-11-21T04:49:13;55.00;;;21.08;;
47860;SDS011;33620;52.340;5.984;2023-11-21T04:51:39;50.03;;;19.63;;
47860;SDS011;33620;52.340;5.984;2023-11-21T04:54:04;44.17;;;18.83;;
47860;SDS011;33620;52.340;5.984;2023-11-21T04:56:30;46.05;;;19.10;;
47860;SDS011;33620;52.340;5.984;2023-11-21T04:58:56;48.78;;;20.80;;
47860;SDS011;33620;52.340;5.984;2023-11-21T05:01:21;49.08;;;20.42;;
47860;SDS011;33620;52.340;5.984;2023-11-21T05:03:47;62.83;;;23.77;;
47860;SDS011;33620;52.340;5.984;2023-11-21T05:06:12;60.03;;;22.75;;
47860;SDS011;33620;52.340;5.984;2023-11-21T05:08:39;53.25;;;23.35;;
47860;SDS011;33620;52.340;5.984;2023-11-21T05:11:04;59.95;;;22.50;;
47860;SDS011;33620;52.340;5.984;2023-11-21T05:13:32;60.45;;;23.10;;
47860;SDS011;33620;52.340;5.984;2023-11-21T05:15:59;58.85;;;22.60;;
47860;SDS011;33620;52.340;5.984;2023-11-21T05:18:24;62.45;;;24.40;;
47860;SDS011;33620;52.340;5.984;2023-11-21T05:20:52;64.72;;;25.48;;
47860;SDS011;33620;52.340;5.984;2023-11-21T05:23:18;65.18;;;24.25;;
47860;SDS011;33620;52.340;5.984;2023-11-21T05:25:44;60.50;;;25.45;;
47860;SDS011;33620;52.340;5.984;2023-11-21T05:28:11;64.82;;;24.83;;
47860;SDS011;33620;52.340;5.984;2023-11-21T05:30:36;63.22;;;24.23;;
47860;SDS011;33620;52.340;5.984;2023-11-21T05:33:03;53.05;;;23.70;;
47860;SDS011;33620;52.340;5.984;2023-11-21T05:35:28;61.20;;;26.02;;
47860;SDS011;33620;52.340;5.984;2023-11-21T05:37:54;49.05;;;22.13;;
47860;SDS011;33620;52.340;5.984;2023-11-21T05:40:19;55.45;;;24.05;;
47860;SDS011;33620;52.340;5.984;2023-11-21T05:42:47;64.18;;;26.02;;
47860;SDS011;33620;52.340;5.984;2023-11-21T05:45:13;61.22;;;24.75;;
47860;SDS011;33620;52.340;5.984;2023-11-21T05:47:39;54.53;;;23.40;;
47860;SDS011;33620;52.340;5.984;2023-11-21T05:50:06;49.95;;;22.58;;
47860;SDS011;33620;52.340;5.984;2023-11-21T05:52:40;54.85;;;24.13;;
47860;SDS011;33620;52.340;5.984;2023-11-21T05:55:06;48.03;;;22.80;;
47860;SDS011;33620;52.340;5.984;2023-11-21T05:57:39;52.08;;;22.92;;
47860;SDS011;33620;52.340;5.984;2023-11-21T06:00:06;54.92;;;24.13;;
47860;SDS011;33620;52.340;5.984;2023-11-21T06:02:50;59.80;;;24.33;;
47860;SDS011;33620;52.340;5.984;2023-11-21T06:05:18;45.47;;;21.02;;
47860;SDS011;33620;52.340;5.984;2023-11-21T06:07:44;55.70;;;24.40;;
47860;SDS011;33620;52.340;5.984;2023-11-21T06:10:10;56.65;;;25.52;;
47860;SDS011;33620;52.340;5.984;2023-11-21T06:12:39;49.88;;;26.27;;
47860;SDS011;33620;52.340;5.984;2023-11-21T06:15:07;51.92;;;25.40;;
47860;SDS011;33620;52.340;5.984;2023-11-21T06:17:34;58.53;;;25.02;;
47860;SDS011;33620;52.340;5.984;2023-11-21T06:20:04;45.63;;;21.70;;
47860;SDS011;33620;52.340;5.984;2023-11-21T06:22:34;42.13;;;20.20;;
47860;SDS011;33620;52.340;5.984;2023-11-21T06:25:09;44.55;;;20.27;;
47860;SDS011;33620;52.340;5.984;2023-11-21T06:27:39;45.65;;;19.65;;
47860;SDS011;33620;52.340;5.984;2023-11-21T06:30:08;36.88;;;17.42;;
47860;SDS011;33620;52.340;5.984;2023-11-21T06:32:34;48.85;;;21.70;;
47860;SDS011;33620;52.340;5.984;2023-11-21T06:35:03;42.60;;;21.13;;
47860;SDS011;33620;52.340;5.984;2023-11-21T06:37:29;51.60;;;20.60;;
47860;SDS011;33620;52.340;5.984;2023-11-21T06:39:55;40.10;;;19.45;;
47860;SDS011;33620;52.340;5.984;2023-11-21T06:42:23;34.95;;;17.15;;
47860;SDS011;33620;52.340;5.984;2023-11-21T06:44:49;43.03;;;19.38;;
47860;SDS011;33620;52.340;5.984;2023-11-21T06:47:16;38.08;;;18.63;;
47860;SDS011;33620;52.340;5.984;2023-11-21T06:49:42;39.90;;;17.63;;
47860;SDS011;33620;52.340;5.984;2023-11-21T06:52:08;40.40;;;19.42;;
47860;SDS011;33620;52.340;5.984;2023-11-21T06:54:33;55.75;;;22.20;;
47860;SDS011;33620;52.340;5.984;2023-11-21T06:56:59;42.33;;;19.50;;
47860;SDS011;33620;52.340;5.984;2023-11-21T06:59:25;42.22;;;19.05;;
47860;SDS011;33620;52.340;5.984;2023-11-21T07:01:50;39.95;;;19.08;;
47860;SDS011;33620;52.340;5.984;2023-11-21T07:04:16;43.45;;;20.88;;
47860;SDS011;33620;52.340;5.984;2023-11-21T07:06:41;44.72;;;19.75;;
47860;SDS011;33620;52.340;5.984;2023-11-21T07:09:08;41.15;;;20.05;;
47860;SDS011;33620;52.340;5.984;2023-11-21T07:11:34;44.90;;;19.60;;
47860;SDS011;33620;52.340;5.984;2023-11-21T07:14:00;41.40;;;20.20;;
47860;SDS011;33620;52.340;5.984;2023-11-21T07:16:32;43.85;;;21.02;;
47860;SDS011;33620;52.340;5.984;2023-11-21T07:19:02;39.90;;;19.90;;
47860;SDS011;33620;52.340;5.984;2023-11-21T07:21:34;53.22;;;23.45;;
47860;SDS011;33620;52.340;5.984;2023-11-21T07:24:00;47.40;;;21.40;;
47860;SDS011;33620;52.340;5.984;2023-11-21T07:26:27;44.78;;;22.27;;
47860;SDS011;33620;52.340;5.984;2023-11-21T07:28:53;43.67;;;20.90;;
47860;SDS011;33620;52.340;5.984;2023-11-21T07:31:18;45.78;;;20.70;;
47860;SDS011;33620;52.340;5.984;2023-11-21T07:33:47;41.92;;;20.70;;
47860;SDS011;33620;52.340;5.984;2023-11-21T07:36:13;49.58;;;23.10;;
47860;SDS011;33620;52.340;5.984;2023-11-21T07:38:39;66.28;;;26.33;;
47860;SDS011;33620;52.340;5.984;2023-11-21T07:41:04;54.83;;;25.33;;
47860;SDS011;33620;52.340;5.984;2023-11-21T07:43:31;57.25;;;26.77;;
47860;SDS011;33620;52.340;5.984;2023-11-21T07:46:00;66.47;;;27.48;;
47860;SDS011;33620;52.340;5.984;2023-11-21T07:48:27;82.15;;;32.22;;
47860;SDS011;33620;52.340;5.984;2023-11-21T07:50:53;84.82;;;30.02;;
47860;SDS011;33620;52.340;5.984;2023-11-21T07:53:19;90.40;;;32.00;;
47860;SDS011;33620;52.340;5.984;2023-11-21T07:55:44;89.78;;;32.60;;
47860;SDS011;33620;52.340;5.984;2023-11-21T07:58:12;63.67;;;28.67;;
47860;SDS011;33620;52.340;5.984;2023-11-21T08:00:38;68.47;;;29.27;;
47860;SDS011;33620;52.340;5.984;2023-11-21T08:03:04;62.88;;;28.52;;
47860;SDS011;33620;52.340;5.984;2023-11-21T08:05:30;64.15;;;28.58;;
47860;SDS011;33620;52.340;5.984;2023-11-21T08:07:56;59.67;;;27.10;;
47860;SDS011;33620;52.340;5.984;2023-11-21T08:10:21;77.68;;;31.85;;
47860;SDS011;33620;52.340;5.984;2023-11-21T08:12:47;66.85;;;28.52;;
47860;SDS011;33620;52.340;5.984;2023-11-21T08:15:13;64.10;;;29.13;;
47860;SDS011;33620;52.340;5.984;2023-11-21T08:17:39;72.63;;;30.02;;
47860;SDS011;33620;52.340;5.984;2023-11-21T08:20:05;77.57;;;29.85;;
47860;SDS011;33620;52.340;5.984;2023-11-21T08:22:31;68.13;;;26.98;;
47860;SDS011;33620;52.340;5.984;2023-11-21T08:24:57;54.35;;;24.15;;
47860;SDS011;33620;52.340;5.984;2023-11-21T08:27:23;49.08;;;23.17;;
47860;SDS011;33620;52.340;5.984;2023-11-21T08:29:48;55.03;;;25.10;;
47860;SDS011;33620;52.340;5.984;2023-11-21T08:32:14;58.17;;;25.20;;
47860;SDS011;33620;52.340;5.984;2023-11-21T08:34:40;53.50;;;24.35;;
47860;SDS011;33620;52.340;5.984;2023-11-21T08:37:07;62.15;;;27.45;;
47860;SDS011;33620;52.340;5.984;2023-11-21T08:39:33;67.35;;;26.80;;
47860;SDS011;33620;52.340;5.984;2023-11-21T08:41:58;50.40;;;23.58;;
47860;SDS011;33620;52.340;5.984;2023-11-21T08:44:24;59.25;;;26.25;;
47860;SDS011;33620;52.340;5.984;2023-11-21T08:46:49;53.85;;;24.05;;
47860;SDS011;33620;52.340;5.984;2023-11-21T08:49:15;53.78;;;26.27;;
47860;SDS011;33620;52.340;5.984;2023-11-21T08:51:40;59.25;;;26.80;;
47860;SDS011;33620;52.340;5.984;2023-11-21T08:54:06;50.63;;;23.73;;
47860;SDS011;33620;52.340;5.984;2023-11-21T08:56:33;78.75;;;30.50;;
47860;SDS011;33620;52.340;5.984;2023-11-21T08:59:00;71.07;;;29.08;;
47860;SDS011;33620;52.340;5.984;2023-11-21T09:01:27;76.03;;;29.38;;
47860;SDS011;33620;52.340;5.984;2023-11-21T09:03:54;61.20;;;26.88;;
47860;SDS011;33620;52.340;5.984;2023-11-21T09:06:19;67.97;;;27.65;;
47860;SDS011;33620;52.340;5.984;2023-11-21T09:08:44;74.88;;;29.25;;
47860;SDS011;33620;52.340;5.984;2023-11-21T09:11:10;68.45;;;28.65;;
47860;SDS011;33620;52.340;5.984;2023-11-21T09:13:35;67.90;;;28.50;;
47860;SDS011;33620;52.340;5.984;2023-11-21T09:16:01;61.85;;;25.65;;
47860;SDS011;33620;52.340;5.984;2023-11-21T09:18:27;63.88;;;26.17;;
47860;SDS011;33620;52.340;5.984;2023-11-21T09:20:52;65.97;;;25.23;;
47860;SDS011;33620;52.340;5.984;2023-11-21T09:23:17;69.60;;;25.98;;
47860;SDS011;33620;52.340;5.984;2023-11-21T09:25:43;63.70;;;25.77;;
47860;SDS011;33620;52.340;5.984;2023-11-21T09:28:11;56.28;;;22.15;;
47860;SDS011;33620;52.340;5.984;2023-11-21T09:30:37;61.03;;;23.17;;
47860;SDS011;33620;52.340;5.984;2023-11-21T09:33:03;56.08;;;21.30;;
47860;SDS011;33620;52.340;5.984;2023-11-21T09:35:33;47.75;;;20.60;;
47860;SDS011;33620;52.340;5.984;2023-11-21T09:37:58;48.00;;;19.55;;
47860;SDS011;33620;52.340;5.984;2023-11-21T09:40:26;46.75;;;20.33;;
47860;SDS011;33620;52.340;5.984;2023-11-21T09:45:25;44.90;;;18.65;;
47860;SDS011;33620;52.340;5.984;2023-11-21T09:47:52;45.83;;;19.83;;
47860;SDS011;33620;52.340;5.984;2023-11-21T09:50:20;48.10;;;19.90;;
47860;SDS011;33620;52.340;5.984;2023-11-21T09:55:26;45.25;;;19.10;;
47860;SDS011;33620;52.340;5.984;2023-11-21T09:57:54;42.60;;;18.08;;
47860;SDS011;33620;52.340;5.984;2023-11-21T10:00:22;38.30;;;17.15;;
47860;SDS011;33620;52.340;5.984;2023-11-21T10:02:52;50.40;;;19.73;;
47860;SDS011;33620;52.340;5.984;2023-11-21T10:05:18;44.20;;;18.33;;
47860;SDS011;33620;52.340;5.984;2023-11-21T10:07:44;41.08;;;18.45;;
47860;SDS011;33620;52.340;5.984;2023-11-21T10:10:11;39.40;;;18.77;;
47860;SDS011;33620;52.340;5.984;2023-11-21T10:12:38;44.15;;;20.02;;
47860;SDS011;33620;52.340;5.984;2023-11-21T10:15:07;42.50;;;18.05;;
47860;SDS011;33620;52.340;5.984;2023-11-21T10:17:34;44.42;;;19.55;;
47860;SDS011;33620;52.340;5.984;2023-11-21T10:22:41;44.22;;;19.50;;
47860;SDS011;33620;52.340;5.984;2023-11-21T10:25:08;44.42;;;19.17;;
47860;SDS011;33620;52.340;5.984;2023-11-21T10:27:39;45.97;;;20.42;;
47860;SDS011;33620;52.340;5.984;2023-11-21T10:30:06;46.67;;;20.65;;
47860;SDS011;33620;52.340;5.984;2023-11-21T10:32:33;48.60;;;20.20;;
47860;SDS011;33620;52.340;5.984;2023-11-21T10:34:59;46.17;;;20.20;;
47860;SDS011;33620;52.340;5.984;2023-11-21T10:37:25;42.60;;;18.15;;
47860;SDS011;33620;52.340;5.984;2023-11-21T10:39:56;39.70;;;18.85;;
47860;SDS011;33620;52.340;5.984;2023-11-21T10:42:23;45.45;;;21.20;;
47860;SDS011;33620;52.340;5.984;2023-11-21T10:44:49;38.83;;;18.38;;
47860;SDS011;33620;52.340;5.984;2023-11-21T10:47:15;44.58;;;19.77;;
47860;SDS011;33620;52.340;5.984;2023-11-21T10:49:43;39.65;;;18.77;;
47860;SDS011;33620;52.340;5.984;2023-11-21T10:52:10;41.65;;;20.23;;
47860;SDS011;33620;52.340;5.984;2023-11-21T10:54:42;38.38;;;18.73;;
47860;SDS011;33620;52.340;5.984;2023-11-21T10:57:07;40.20;;;18.85;;
47860;SDS011;33620;52.340;5.984;2023-11-21T10:59:34;38.65;;;18.42;;
47860;SDS011;33620;52.340;5.984;2023-11-21T11:02:01;37.03;;;17.80;;
47860;SDS011;33620;52.340;5.984;2023-11-21T11:04:35;38.17;;;19.85;;
47860;SDS011;33620;52.340;5.984;2023-11-21T11:07:03;39.08;;;19.30;;
47860;SDS011;33620;52.340;5.984;2023-11-21T11:09:30;41.08;;;20.13;;
47860;SDS011;33620;52.340;5.984;2023-11-21T11:11:57;35.42;;;18.92;;
47860;SDS011;33620;52.340;5.984;2023-11-21T11:14:23;43.42;;;19.98;;
47860;SDS011;33620;52.340;5.984;2023-11-21T11:16:52;38.92;;;18.38;;
47860;SDS011;33620;52.340;5.984;2023-11-21T11:19:19;38.03;;;17.60;;
47860;SDS011;33620;52.340;5.984;2023-11-21T11:27:44;37.78;;;19.02;;
47860;SDS011;33620;52.340;5.984;2023-11-21T11:35:45;36.20;;;18.38;;
47860;SDS011;33620;52.340;5.984;2023-11-21T11:38:20;40.92;;;20.77;;
47860;SDS011;33620;52.340;5.984;2023-11-21T11:40:47;39.17;;;19.77;;
47860;SDS011;33620;52.340;5.984;2023-11-21T11:43:24;44.75;;;21.80;;
47860;SDS011;33620;52.340;5.984;2023-11-21T11:45:55;45.13;;;21.35;;
47860;SDS011;33620;52.340;5.984;2023-11-21T11:48:22;44.75;;;21.33;;
47860;SDS011;33620;52.340;5.984;2023-11-21T11:51:03;43.05;;;21.05;;
47860;SDS011;33620;52.340;5.984;2023-11-21T11:53:46;37.72;;;19.63;;
47860;SDS011;33620;52.340;5.984;2023-11-21T11:56:30;47.42;;;22.70;;
47860;SDS011;33620;52.340;5.984;2023-11-21T11:58:59;44.13;;;20.40;;
47860;SDS011;33620;52.340;5.984;2023-11-21T12:01:27;36.50;;;18.88;;
47860;SDS011;33620;52.340;5.984;2023-11-21T12:06:56;38.30;;;18.65;;
47860;SDS011;33620;52.340;5.984;2023-11-21T12:09:23;38.15;;;16.85;;
47860;SDS011;33620;52.340;5.984;2023-11-21T12:11:51;32.60;;;16.25;;
47860;SDS011;33620;52.340;5.984;2023-11-21T12:14:17;31.27;;;14.45;;
47860;SDS011;33620;52.340;5.984;2023-11-21T12:16:43;29.40;;;11.90;;
47860;SDS011;33620;52.340;5.984;2023-11-21T12:19:11;31.42;;;12.05;;
47860;SDS011;33620;52.340;5.984;2023-11-21T12:21:37;32.38;;;12.02;;
47860;SDS011;33620;52.340;5.984;2023-11-21T12:24:03;31.15;;;12.88;;
47860;SDS011;33620;52.340;5.984;2023-11-21T12:26:29;34.05;;;13.68;;
47860;SDS011;33620;52.340;5.984;2023-11-21T12:28:54;36.63;;;14.18;;
47860;SDS011;33620;52.340;5.984;2023-11-21T12:31:20;35.67;;;15.88;;
47860;SDS011;33620;52.340;5.984;2023-11-21T12:33:48;36.15;;;15.43;;
47860;SDS011;33620;52.340;5.984;2023-11-21T12:36:15;44.15;;;17.25;;
47860;SDS011;33620;52.340;5.984;2023-11-21T12:38:41;40.33;;;17.08;;
47860;SDS011;33620;52.340;5.984;2023-11-21T12:41:07;40.92;;;16.75;;
47860;SDS011;33620;52.340;5.984;2023-11-21T12:43:33;37.50;;;16.98;;
47860;SDS011;33620;52.340;5.984;2023-11-21T12:46:06;38.60;;;16.33;;
47860;SDS011;33620;52.340;5.984;2023-11-21T12:48:34;39.28;;;17.38;;
47860;SDS011;33620;52.340;5.984;2023-11-21T12:51:04;37.15;;;16.80;;
47860;SDS011;33620;52.340;5.984;2023-11-21T12:53:31;36.38;;;16.77;;
47860;SDS011;33620;52.340;5.984;2023-11-21T12:56:01;43.65;;;18.90;;
47860;SDS011;33620;52.340;5.984;2023-11-21T12:58:28;46.22;;;19.40;;
47860;SDS011;33620;52.340;5.984;2023-11-21T13:00:54;43.95;;;18.98;;
47860;SDS011;33620;52.340;5.984;2023-11-21T13:03:24;48.75;;;20.48;;
47860;SDS011;33620;52.340;5.984;2023-11-21T13:05:50;43.17;;;19.65;;
47860;SDS011;33620;52.340;5.984;2023-11-21T13:08:18;43.85;;;19.08;;
47860;SDS011;33620;52.340;5.984;2023-11-21T13:10:48;38.90;;;17.67;;
47860;SDS011;33620;52.340;5.984;2023-11-21T13:13:15;40.85;;;18.40;;
47860;SDS011;33620;52.340;5.984;2023-11-21T13:18:21;39.22;;;17.95;;
47860;SDS011;33620;52.340;5.984;2023-11-21T13:20:47;37.13;;;17.08;;
47860;SDS011;33620;52.340;5.984;2023-11-21T13:23:13;38.97;;;17.27;;
47860;SDS011;33620;52.340;5.984;2023-11-21T13:25:41;37.65;;;18.10;;
47860;SDS011;33620;52.340;5.984;2023-11-21T13:28:13;39.03;;;17.75;;
47860;SDS011;33620;52.340;5.984;2023-11-21T13:30:40;39.30;;;18.40;;
47860;SDS011;33620;52.340;5.984;2023-11-21T13:33:06;33.65;;;15.65;;
47860;SDS011;33620;52.340;5.984;2023-11-21T13:35:37;36.17;;;16.92;;
47860;SDS011;33620;52.340;5.984;2023-11-21T13:38:10;31.83;;;15.88;;
47860;SDS011;33620;52.340;5.984;2023-11-21T13:40:37;34.20;;;16.45;;
47860;SDS011;33620;52.340;5.984;2023-11-21T13:43:11;33.28;;;14.90;;
47860;SDS011;33620;52.340;5.984;2023-11-21T13:45:40;33.42;;;16.33;;
47860;SDS011;33620;52.340;5.984;2023-11-21T13:48:07;32.33;;;16.00;;
47860;SDS011;33620;52.340;5.984;2023-11-21T13:50:36;32.75;;;16.52;;
47860;SDS011;33620;52.340;5.984;2023-11-21T13:53:02;28.58;;;15.07;;
47860;SDS011;33620;52.340;5.984;2023-11-21T13:55:36;31.85;;;16.85;;
47860;SDS011;33620;52.340;5.984;2023-11-21T13:58:02;31.95;;;16.70;;
47860;SDS011;33620;52.340;5.984;2023-11-21T14:00:29;28.45;;;15.55;;
47860;SDS011;33620;52.340;5.984;2023-11-21T14:03:11;25.20;;;13.38;;
47860;SDS011;33620;52.340;5.984;2023-11-21T14:05:44;25.75;;;12.65;;
47860;SDS011;33620;52.340;5.984;2023-11-21T14:08:12;25.45;;;12.98;;
47860;SDS011;33620;52.340;5.984;2023-11-21T14:10:41;24.65;;;12.95;;
47860;SDS011;33620;52.340;5.984;2023-11-21T14:13:14;23.77;;;12.85;;
47860;SDS011;33620;52.340;5.984;2023-11-21T14:15:42;24.10;;;12.50;;
47860;SDS011;33620;52.340;5.984;2023-11-21T14:18:10;24.92;;;13.30;;
47860;SDS011;33620;52.340;5.984;2023-11-21T14:20:38;23.48;;;12.77;;
47860;SDS011;33620;52.340;5.984;2023-11-21T14:23:04;22.80;;;12.93;;
47860;SDS011;33620;52.340;5.984;2023-11-21T14:25:31;26.13;;;13.13;;
47860;SDS011;33620;52.340;5.984;2023-11-21T14:27:58;21.08;;;11.98;;
47860;SDS011;33620;52.340;5.984;2023-11-21T14:30:24;22.98;;;11.90;;
47860;SDS011;33620;52.340;5.984;2023-11-21T14:32:51;21.98;;;11.65;;
47860;SDS011;33620;52.340;5.984;2023-11-21T14:35:16;21.45;;;11.27;;
47860;SDS011;33620;52.340;5.984;2023-11-21T14:37:42;22.63;;;11.75;;
47860;SDS011;33620;52.340;5.984;2023-11-21T14:40:08;22.17;;;11.40;;
47860;SDS011;33620;52.340;5.984;2023-11-21T14:42:34;22.80;;;10.90;;
47860;SDS011;33620;52.340;5.984;2023-11-21T14:45:03;21.73;;;10.68;;